This is the latest recevied weather packets stored in our database for station/object F1ZFG-13. If no packets are shown the sender has not sent any weather packets the latest 10 day(s).
| Time | Temp. | Humidity | Pressure | Rain* | Wind** | Luminosity | Snow |
|---|---|---|---|---|---|---|---|
| 1787763349 | 28.33° C | 36% | 1010.9 hPa | 0 mm | - | - | - |
| 1787760402 | 28.33° C | 36% | 1010.9 hPa | 0 mm | - | - | - |
| 1787756809 | 29.44° C | 32% | 1011.3 hPa | 0 mm | - | - | - |
| 1787753656 | 28.33° C | 46% | 1012.1 hPa | 0 mm | - | - | - |
| 1787750109 | 27.78° C | 52% | 1012.8 hPa | 0 mm | - | - | - |
| 1787746710 | 26.67° C | 53% | 1013.8 hPa | 0 mm | - | - | - |
| 1787743489 | 26.11° C | 56% | 1014.3 hPa | 0 mm | - | - | - |
| 1787740314 | 25° C | 61% | 1014.9 hPa | 0 mm | - | - | - |
| 1787736734 | 23.89° C | 67% | 1015.4 hPa | 0 mm | - | - | - |
| 1787733368 | 22.22° C | 73% | 1015.6 hPa | 0 mm | - | - | - |
| 1787729880 | 20.56° C | 80% | 1015.6 hPa | 0 mm | - | - | - |
| 1787726895 | 18.33° C | 92% | 1015.6 hPa | 0 mm | - | - | - |
| 1787723941 | 17.22° C | 94% | 1015.2 hPa | 0 mm | - | - | - |
| 1787720826 | 17.22° C | 94% | 1015.2 hPa | 0 mm | - | - | - |
| 1787717691 | 17.22° C | 92% | 1015.2 hPa | 0 mm | - | - | - |
| 1787714712 | 17.78° C | 91% | 1014.9 hPa | 0 mm | - | - | - |
| 1787711118 | 18.33° C | 89% | 1015 hPa | 0 mm | - | - | - |
| 1787708238 | 18.89° C | 86% | 1015 hPa | 0 mm | - | - | - |
| 1787705146 | 18.89° C | 85% | 1014.9 hPa | 0 mm | - | - | - |
| 1787702144 | 19.44° C | 82% | 1014.4 hPa | 0 mm | - | - | - |
| 1787698954 | 19.44° C | 82% | 1014.4 hPa | 0 mm | - | - | - |
| 1787695973 | 20.56° C | 78% | 1014.1 hPa | 0 mm | - | - | - |
| 1787692423 | 21.11° C | 74% | 1013.7 hPa | 0 mm | - | - | - |
| 1787689230 | 22.22° C | 71% | 1013.3 hPa | 0 mm | - | - | - |
| 1787685990 | 23.33° C | 67% | 1012.6 hPa | 0 mm | - | - | - |
* Rain latest hour (hover to see other rain measurements)
** Current wind speed in m/s (hover to see current wind gust speed)